createdAt,value
2023-01-27T00:00:34.700Z,1.28
2023-01-27T00:03:23.429Z,1.26
2023-01-27T00:06:13.617Z,1.26
2023-01-27T00:09:03.528Z,1.19
2023-01-27T00:12:10.420Z,1.24
2023-01-27T00:14:58.958Z,1.21
2023-01-27T00:17:48.494Z,1.23
2023-01-27T00:20:55.382Z,1.24
2023-01-27T00:24:02.270Z,1.22
2023-01-27T00:26:52.613Z,1.24
2023-01-27T00:29:42.048Z,1.22
2023-01-27T00:32:48.262Z,1.19
2023-01-27T00:35:38.241Z,1.25
2023-01-27T00:38:27.516Z,1.18
2023-01-27T00:41:19.463Z,1.26
2023-01-27T00:44:13.679Z,1.23
2023-01-27T00:47:03.049Z,1.20
2023-01-27T00:49:52.593Z,1.24
2023-01-27T00:52:42.027Z,1.16
2023-01-27T00:55:31.579Z,1.16
2023-01-27T00:58:22.352Z,1.08
2023-01-27T01:01:15.352Z,1.11
2023-01-27T01:04:03.891Z,1.14
2023-01-27T01:06:53.624Z,1.19
2023-01-27T01:09:42.182Z,1.08
2023-01-27T01:12:31.046Z,0.94
2023-01-27T01:15:20.071Z,0.88
2023-01-27T01:18:11.501Z,0.87
2023-01-27T01:21:00.907Z,0.96
2023-01-27T01:23:49.782Z,0.92
2023-01-27T01:26:40.031Z,0.91
2023-01-27T01:29:28.773Z,1.05
2023-01-27T01:32:18.291Z,1.03
2023-01-27T01:35:09.286Z,0.94
2023-01-27T01:37:59.038Z,0.96
2023-01-27T01:40:47.581Z,0.90
2023-01-27T01:43:36.561Z,0.94
2023-01-27T01:46:25.125Z,0.92
2023-01-27T01:49:16.238Z,0.99
2023-01-27T01:52:10.747Z,0.80
2023-01-27T01:55:00.161Z,0.73
2023-01-27T01:57:49.472Z,0.82
2023-01-27T02:00:38.176Z,0.94
2023-01-27T02:03:27.880Z,1.00
2023-01-27T02:06:18.293Z,0.89
2023-01-27T02:09:08.698Z,0.86
2023-01-27T02:12:00.159Z,0.93
2023-01-27T02:14:48.954Z,0.99
2023-01-27T02:17:38.490Z,1.06
2023-01-27T02:20:37.436Z,1.06
2023-01-27T02:23:46.844Z,1.12
2023-01-27T02:26:41.213Z,1.03
2023-01-27T02:29:30.297Z,1.12
2023-01-27T02:32:26.023Z,1.10
2023-01-27T02:35:22.872Z,1.01
2023-01-27T02:38:14.245Z,1.06
2023-01-27T02:41:13.316Z,0.86
2023-01-27T02:44:04.976Z,0.85
2023-01-27T02:46:55.203Z,0.92
2023-01-27T02:49:43.812Z,0.87
2023-01-27T02:52:33.276Z,0.85
2023-01-27T02:55:21.886Z,0.90
2023-01-27T02:58:12.682Z,0.87
2023-01-27T03:01:10.126Z,0.84
2023-01-27T03:03:58.696Z,0.82
2023-01-27T03:06:47.851Z,0.90
2023-01-27T03:09:36.360Z,0.93
2023-01-27T03:12:25.713Z,0.96
2023-01-27T03:15:32.157Z,1.03
2023-01-27T03:18:22.533Z,0.97
2023-01-27T03:21:11.549Z,1.08
2023-01-27T03:24:00.550Z,1.14
2023-01-27T03:26:50.035Z,1.10
2023-01-27T03:29:57.119Z,1.11
2023-01-27T03:32:47.410Z,1.08
2023-01-27T03:36:15.293Z,1.10
2023-01-27T03:39:30.098Z,1.14
2023-01-27T03:42:36.407Z,1.15
2023-01-27T03:45:42.488Z,1.04
2023-01-27T03:48:32.468Z,1.15
2023-01-27T03:51:25.241Z,1.09
2023-01-27T03:54:14.359Z,1.15
2023-01-27T03:57:05.950Z,1.15
2023-01-27T03:59:56.870Z,1.17
2023-01-27T04:03:02.900Z,1.16
2023-01-27T04:06:10.234Z,1.15
2023-01-27T04:09:01.211Z,1.18
2023-01-27T04:11:56.591Z,1.15
2023-01-27T04:14:45.364Z,1.10
2023-01-27T04:17:39.213Z,1.09
2023-01-27T04:20:28.192Z,1.17
2023-01-27T04:23:17.297Z,1.13
2023-01-27T04:26:07.940Z,1.08
2023-01-27T04:28:56.693Z,1.16
2023-01-27T04:31:45.333Z,1.17
2023-01-27T04:34:34.748Z,1.17
2023-01-27T04:37:23.490Z,1.12
2023-01-27T04:40:13.620Z,1.15
2023-01-27T04:43:03.534Z,1.13
2023-01-27T04:45:53.110Z,1.10
2023-01-27T04:48:42.271Z,1.15
2023-01-27T04:51:30.905Z,1.14
2023-01-27T04:54:20.910Z,1.15
2023-01-27T04:57:10.884Z,1.13
2023-01-27T05:00:01.714Z,1.14
2023-01-27T05:02:50.395Z,1.14
2023-01-27T05:05:40.238Z,1.13
2023-01-27T05:08:28.821Z,1.15
2023-01-27T05:11:19.678Z,1.07
2023-01-27T05:14:08.334Z,1.10
2023-01-27T05:16:59.167Z,1.08
2023-01-27T05:19:47.844Z,1.05
2023-01-27T05:22:36.459Z,1.04
2023-01-27T05:25:24.979Z,1.06
2023-01-27T05:28:13.945Z,1.06
2023-01-27T05:31:05.061Z,1.08
2023-01-27T05:33:56.236Z,1.05
2023-01-27T05:36:45.202Z,1.06
2023-01-27T05:39:33.739Z,1.05
2023-01-27T05:42:22.998Z,1.03
2023-01-27T05:45:13.067Z,1.01
2023-01-27T05:48:01.842Z,1.02
2023-01-27T05:50:59.869Z,1.04
2023-01-27T05:53:48.818Z,1.05
2023-01-27T05:56:39.187Z,1.07
2023-01-27T05:59:27.873Z,1.10
2023-01-27T06:02:17.270Z,1.12
2023-01-27T06:05:07.370Z,1.09
2023-01-27T06:07:57.733Z,1.13
2023-01-27T06:10:46.886Z,1.14
2023-01-27T06:13:38.651Z,1.14
2023-01-27T06:16:27.260Z,1.15
2023-01-27T06:19:16.710Z,1.16
2023-01-27T06:22:05.285Z,1.04
2023-01-27T06:24:56.158Z,0.95
2023-01-27T06:27:45.167Z,1.04
2023-01-27T06:30:34.959Z,1.07
2023-01-27T06:33:24.102Z,1.06
2023-01-27T06:36:15.624Z,1.06
2023-01-27T06:39:05.006Z,1.08
2023-01-27T06:41:54.894Z,1.14
2023-01-27T06:44:44.348Z,1.15
2023-01-27T06:47:32.921Z,1.16
2023-01-27T06:50:22.669Z,1.15
2023-01-27T06:53:11.620Z,1.13
2023-01-27T06:56:02.428Z,1.10
2023-01-27T06:58:52.410Z,1.08
2023-01-27T07:01:41.115Z,1.03
2023-01-27T07:04:30.236Z,0.90
2023-01-27T07:07:19.220Z,1.08
2023-01-27T07:10:08.759Z,1.08
2023-01-27T07:13:05.942Z,1.02
2023-01-27T07:16:00.709Z,1.07
2023-01-27T07:18:49.532Z,1.07
2023-01-27T07:21:38.850Z,1.11
2023-01-27T07:24:28.069Z,1.12
2023-01-27T07:27:16.652Z,0.87
2023-01-27T07:30:06.509Z,1.13
2023-01-27T07:32:56.482Z,1.15
2023-01-27T07:35:45.764Z,1.17
2023-01-27T07:38:35.536Z,1.19
2023-01-27T07:41:25.646Z,1.20
2023-01-27T07:44:15.148Z,1.18
2023-01-27T07:47:03.766Z,1.20
2023-01-27T07:49:53.732Z,1.20
2023-01-27T07:52:42.694Z,1.21
2023-01-27T07:55:33.244Z,1.15
2023-01-27T07:58:21.824Z,1.22
2023-01-27T08:01:12.402Z,1.23
2023-01-27T08:04:00.971Z,1.17
2023-01-27T08:06:51.285Z,1.28
2023-01-27T08:09:39.924Z,1.30
2023-01-27T08:12:29.365Z,1.28
2023-01-27T08:15:19.137Z,1.14
2023-01-27T08:18:08.325Z,1.27
2023-01-27T08:21:00.603Z,1.26
2023-01-27T08:23:52.131Z,1.26
2023-01-27T08:26:40.697Z,1.23
2023-01-27T08:29:32.067Z,1.32
2023-01-27T08:32:20.648Z,1.32
2023-01-27T08:35:10.416Z,1.19
2023-01-27T08:37:58.975Z,1.24
2023-01-27T08:40:49.402Z,1.32
2023-01-27T08:43:38.421Z,1.33
2023-01-27T08:46:27.383Z,1.29
2023-01-27T08:49:16.419Z,1.38
2023-01-27T08:52:05.202Z,1.35
2023-01-27T08:54:54.319Z,1.29
2023-01-27T08:57:44.318Z,1.38
2023-01-27T09:00:34.267Z,1.48
2023-01-27T09:03:22.869Z,1.52
2023-01-27T09:06:13.317Z,1.55
2023-01-27T09:09:12.147Z,1.57
2023-01-27T09:12:00.965Z,1.60
2023-01-27T09:14:51.329Z,1.68
2023-01-27T09:17:39.949Z,1.68
2023-01-27T09:20:29.385Z,1.70
2023-01-27T09:23:17.964Z,1.75
2023-01-27T09:26:07.309Z,1.72
2023-01-27T09:28:55.912Z,1.82
2023-01-27T09:31:46.784Z,1.68
2023-01-27T09:34:35.456Z,1.93
2023-01-27T09:37:27.756Z,1.97
2023-01-27T09:40:32.080Z,1.82
2023-01-27T09:43:41.322Z,2.04
2023-01-27T09:46:48.248Z,2.10
2023-01-27T09:50:21.757Z,2.11
2023-01-27T09:53:32.741Z,2.10
2023-01-27T09:56:39.884Z,2.08
2023-01-27T09:59:53.620Z,2.13
2023-01-27T10:03:12.402Z,2.18
2023-01-27T10:06:24.588Z,2.15
2023-01-27T10:09:39.129Z,2.18
2023-01-27T10:12:42.528Z,2.12
2023-01-27T10:15:40.855Z,2.11
2023-01-27T10:18:41.717Z,2.12
2023-01-27T10:21:41.853Z,2.13
2023-01-27T10:24:43.178Z,2.11
2023-01-27T10:27:37.730Z,2.16
2023-01-27T10:30:34.457Z,2.20
2023-01-27T10:33:28.594Z,2.16
2023-01-27T10:36:26.741Z,2.18
2023-01-27T10:42:37.089Z,2.28
2023-01-27T10:45:30.770Z,2.34
2023-01-27T10:48:38.177Z,2.37
2023-01-27T10:51:31.193Z,2.38
2023-01-27T10:54:25.793Z,2.42
2023-01-27T10:57:19.425Z,2.45
2023-01-27T11:03:31.380Z,2.39
2023-01-27T11:06:24.540Z,2.42
2023-01-27T11:09:25.655Z,2.42
2023-01-27T11:12:17.504Z,2.43
2023-01-27T11:15:18.876Z,2.43
2023-01-27T11:18:16.955Z,2.45
2023-01-27T11:21:09.304Z,2.45
2023-01-27T11:24:02.997Z,2.45
2023-01-27T11:26:59.981Z,2.44
2023-01-27T11:29:55.742Z,2.45
2023-01-27T11:32:55.390Z,2.46
2023-01-27T11:35:45.038Z,2.45
2023-01-27T11:38:33.654Z,2.46
2023-01-27T11:41:22.358Z,2.45
2023-01-27T11:44:22.271Z,2.40
2023-01-27T11:47:24.430Z,2.50
2023-01-27T11:50:17.108Z,2.53
2023-01-27T11:53:15.771Z,2.53
2023-01-27T11:56:09.670Z,2.51
2023-01-27T11:59:03.849Z,2.51
2023-01-27T12:01:56.312Z,2.52
2023-01-27T12:04:53.370Z,2.53
2023-01-27T12:07:50.967Z,2.54
2023-01-27T12:10:42.362Z,2.54
2023-01-27T12:13:31.456Z,2.59
2023-01-27T12:16:20.841Z,2.63
2023-01-27T12:19:24.987Z,2.66
2023-01-27T12:22:22.621Z,2.62
2023-01-27T12:25:20.609Z,2.60
2023-01-27T12:28:23.276Z,2.58
2023-01-27T12:31:14.996Z,2.46
2023-01-27T12:34:06.596Z,2.58
2023-01-27T12:36:56.567Z,2.49
2023-01-27T12:39:53.393Z,2.63
2023-01-27T12:42:44.236Z,2.66
2023-01-27T12:45:35.560Z,2.69
2023-01-27T12:48:24.094Z,2.73
2023-01-27T12:51:16.867Z,2.80
2023-01-27T12:54:16.439Z,2.86
2023-01-27T12:57:13.310Z,2.87
2023-01-27T13:00:02.416Z,2.84
2023-01-27T13:02:52.421Z,2.82
2023-01-27T13:05:43.679Z,2.75
2023-01-27T13:08:36.332Z,2.70
2023-01-27T13:11:34.604Z,2.65
2023-01-27T13:14:30.132Z,2.53
2023-01-27T13:17:39.424Z,2.59
2023-01-27T13:20:31.567Z,2.55
2023-01-27T13:23:25.125Z,2.52
2023-01-27T13:26:18.829Z,2.52
2023-01-27T13:29:14.703Z,2.53
2023-01-27T13:32:12.294Z,2.57
2023-01-27T13:35:11.618Z,2.59
2023-01-27T13:38:06.009Z,2.59
2023-01-27T13:40:54.673Z,2.59
2023-01-27T13:43:51.651Z,2.60
2023-01-27T13:46:42.926Z,2.58
2023-01-27T13:49:39.473Z,2.60
2023-01-27T13:52:28.562Z,2.62
2023-01-27T13:55:18.930Z,2.61
2023-01-27T13:58:14.767Z,2.60
2023-01-27T14:01:15.175Z,2.55
2023-01-27T14:04:31.099Z,2.53
2023-01-27T14:07:29.504Z,2.51
2023-01-27T14:10:26.024Z,2.53
2023-01-27T14:13:36.788Z,2.52
2023-01-27T14:16:34.820Z,2.49
2023-01-27T14:19:34.028Z,2.46
2023-01-27T14:22:33.018Z,2.45
2023-01-27T14:25:29.097Z,2.26
2023-01-27T14:28:29.651Z,2.38
2023-01-27T14:31:21.719Z,2.36
2023-01-27T14:34:29.328Z,2.37
2023-01-27T14:37:25.816Z,2.35
2023-01-27T14:40:21.569Z,2.33
2023-01-27T14:43:23.004Z,2.31
2023-01-27T14:46:21.210Z,2.29
2023-01-27T14:49:17.095Z,2.28
2023-01-27T14:52:17.807Z,2.28
2023-01-27T14:55:33.643Z,2.31
2023-01-27T14:58:36.897Z,2.27
2023-01-27T15:01:34.362Z,2.24
2023-01-27T15:04:33.551Z,2.20
2023-01-27T15:07:31.973Z,2.19
2023-01-27T15:10:24.535Z,2.12
2023-01-27T15:13:45.318Z,2.18
2023-01-27T15:16:44.516Z,2.15
2023-01-27T15:19:47.941Z,2.13
2023-01-27T15:22:52.525Z,2.09
2023-01-27T15:25:46.764Z,2.06
2023-01-27T15:28:39.580Z,2.03
2023-01-27T15:31:31.162Z,1.97
2023-01-27T15:34:23.924Z,1.90
2023-01-27T15:37:20.516Z,1.92
2023-01-27T15:40:16.686Z,1.89
2023-01-27T15:43:06.579Z,1.85
2023-01-27T15:45:56.828Z,1.85
2023-01-27T15:48:47.981Z,1.79
2023-01-27T15:51:38.471Z,1.81
2023-01-27T15:54:33.136Z,1.83
2023-01-27T15:57:31.143Z,1.78
2023-01-27T16:00:28.416Z,1.80
2023-01-27T16:03:24.619Z,1.83
2023-01-27T16:06:17.709Z,1.82
2023-01-27T16:09:09.218Z,1.83
2023-01-27T16:12:04.593Z,1.74
2023-01-27T16:15:20.348Z,1.78
2023-01-27T16:18:26.564Z,1.74
2023-01-27T16:21:37.569Z,1.73
2023-01-27T16:24:32.881Z,1.76
2023-01-27T16:27:34.845Z,1.78
2023-01-27T16:30:27.511Z,1.78
2023-01-27T16:33:23.284Z,1.75
2023-01-27T16:36:22.413Z,1.77
2023-01-27T16:39:28.711Z,1.74
2023-01-27T16:42:18.286Z,1.74
2023-01-27T16:45:19.907Z,1.76
2023-01-27T16:48:21.742Z,1.77
2023-01-27T16:51:15.467Z,1.75
2023-01-27T16:54:18.840Z,1.74
2023-01-27T16:57:34.387Z,1.74
2023-01-27T17:00:27.299Z,1.64
2023-01-27T17:03:20.180Z,1.62
2023-01-27T17:06:15.259Z,1.69
2023-01-27T17:09:04.000Z,1.66
2023-01-27T17:11:53.650Z,1.58
2023-01-27T17:14:48.064Z,1.57
2023-01-27T17:17:39.888Z,1.63
2023-01-27T17:20:32.042Z,1.55
2023-01-27T17:23:26.819Z,1.58
2023-01-27T17:26:17.560Z,1.61
2023-01-27T17:29:06.297Z,1.62
2023-01-27T17:31:56.372Z,1.65
2023-01-27T17:34:46.021Z,1.70
2023-01-27T17:37:34.593Z,1.66
2023-01-27T17:40:24.233Z,1.59
2023-01-27T17:43:29.122Z,1.64
2023-01-27T17:46:20.179Z,1.58
2023-01-27T17:49:15.729Z,1.63
2023-01-27T17:52:10.040Z,1.66
2023-01-27T17:55:03.439Z,1.66
2023-01-27T17:57:59.486Z,1.66
2023-01-27T18:01:01.710Z,1.60
2023-01-27T18:03:56.064Z,1.45
2023-01-27T18:07:06.076Z,1.52
2023-01-27T18:09:56.821Z,1.49
2023-01-27T18:12:49.801Z,1.50
2023-01-27T18:15:43.407Z,1.51
2023-01-27T18:18:37.082Z,1.49
2023-01-27T18:21:29.366Z,1.41
2023-01-27T18:24:23.271Z,1.44
2023-01-27T18:27:30.144Z,1.43
2023-01-27T18:30:20.567Z,1.45
2023-01-27T18:33:13.473Z,1.45
2023-01-27T18:36:02.635Z,1.44
2023-01-27T18:38:51.707Z,1.43
2023-01-27T18:41:47.848Z,1.45
2023-01-27T18:44:37.114Z,1.45
2023-01-27T18:47:35.843Z,1.47
2023-01-27T18:50:26.217Z,1.43
2023-01-27T18:53:17.106Z,1.33
2023-01-27T18:56:07.780Z,1.39
2023-01-27T18:58:57.705Z,1.40
2023-01-27T19:01:46.404Z,1.41
2023-01-27T19:04:35.604Z,1.17
2023-01-27T19:07:24.232Z,1.35
2023-01-27T19:10:16.361Z,1.36
2023-01-27T19:13:05.698Z,1.38
2023-01-27T19:15:56.667Z,1.38
2023-01-27T19:18:48.684Z,1.40
2023-01-27T19:21:37.638Z,1.38
2023-01-27T19:24:26.657Z,1.36
2023-01-27T19:27:17.129Z,1.28
2023-01-27T19:30:22.461Z,1.33
2023-01-27T19:33:19.112Z,1.32
2023-01-27T19:36:22.267Z,1.17
2023-01-27T19:39:14.189Z,1.26
2023-01-27T19:42:03.305Z,1.25
2023-01-27T19:44:51.887Z,1.24
2023-01-27T19:47:44.005Z,1.24
2023-01-27T19:50:34.413Z,1.21
2023-01-27T19:53:24.375Z,1.20
2023-01-27T19:56:17.331Z,1.22
2023-01-27T19:59:05.913Z,1.19
2023-01-27T20:01:56.666Z,1.22
2023-01-27T20:04:45.303Z,1.17
2023-01-27T20:07:35.823Z,1.24
2023-01-27T20:10:27.801Z,1.22
2023-01-27T20:13:18.159Z,1.05
2023-01-27T20:16:07.851Z,1.23
2023-01-27T20:18:57.517Z,1.22
2023-01-27T20:21:47.151Z,1.15
2023-01-27T20:24:37.183Z,1.23
2023-01-27T20:27:26.433Z,1.21
2023-01-27T20:30:17.570Z,1.20
2023-01-27T20:33:07.280Z,1.05
2023-01-27T20:35:55.846Z,1.19
2023-01-27T20:38:44.827Z,1.20
2023-01-27T20:41:35.124Z,1.26
2023-01-27T20:44:24.253Z,1.26
2023-01-27T20:47:13.263Z,1.26
2023-01-27T20:50:01.797Z,1.28
2023-01-27T20:52:50.700Z,1.28
2023-01-27T20:55:39.277Z,1.28
2023-01-27T20:58:30.012Z,1.28
2023-01-27T21:01:20.656Z,1.27
2023-01-27T21:04:09.589Z,1.20
2023-01-27T21:06:58.153Z,1.14
2023-01-27T21:09:46.760Z,1.25
2023-01-27T21:12:35.330Z,1.24
2023-01-27T21:15:26.072Z,1.24
2023-01-27T21:18:14.619Z,1.24
2023-01-27T21:21:04.447Z,1.19
2023-01-27T21:23:54.245Z,1.13
2023-01-27T21:26:43.110Z,1.18
2023-01-27T21:29:32.137Z,1.15
2023-01-27T21:32:22.436Z,1.10
2023-01-27T21:35:10.990Z,1.12
2023-01-27T21:38:00.059Z,1.14
2023-01-27T21:40:50.771Z,1.13
2023-01-27T21:43:58.063Z,1.14
2023-01-27T21:46:46.626Z,1.10
2023-01-27T21:49:58.206Z,1.01
2023-01-27T21:52:48.853Z,1.13
2023-01-27T21:55:38.348Z,1.15
2023-01-27T21:58:26.891Z,1.20
2023-01-27T22:01:15.513Z,1.16
2023-01-27T22:04:05.520Z,1.19
2023-01-27T22:06:55.428Z,0.94
2023-01-27T22:09:44.135Z,1.20
2023-01-27T22:12:33.206Z,1.22
2023-01-27T22:15:21.767Z,1.18
2023-01-27T22:18:11.706Z,1.20
2023-01-27T22:21:02.120Z,1.21
2023-01-27T22:23:52.038Z,1.20
2023-01-27T22:26:40.616Z,1.20
2023-01-27T22:29:30.040Z,1.18
2023-01-27T22:32:18.657Z,1.21
2023-01-27T22:35:08.849Z,1.15
2023-01-27T22:37:57.423Z,1.20
2023-01-27T22:40:47.325Z,1.22
2023-01-27T22:43:35.824Z,1.22
2023-01-27T22:46:25.865Z,1.21
2023-01-27T22:49:14.394Z,1.17
2023-01-27T22:52:03.329Z,1.16
2023-01-27T22:54:52.441Z,1.16
2023-01-27T22:57:45.039Z,1.16
2023-01-27T23:00:33.614Z,1.18
2023-01-27T23:03:23.276Z,1.22
2023-01-27T23:06:11.843Z,1.20
2023-01-27T23:09:00.394Z,1.21
2023-01-27T23:11:49.386Z,1.23
2023-01-27T23:14:39.756Z,1.18
2023-01-27T23:17:28.296Z,1.19
2023-01-27T23:20:17.595Z,1.19
2023-01-27T23:23:06.613Z,1.17
2023-01-27T23:25:55.544Z,1.16
2023-01-27T23:28:44.095Z,1.14
2023-01-27T23:31:34.729Z,1.13
2023-01-27T23:34:23.384Z,1.14
2023-01-27T23:37:13.428Z,1.14
2023-01-27T23:40:02.468Z,1.08
2023-01-27T23:42:51.019Z,1.09
2023-01-27T23:45:39.723Z,1.08
2023-01-27T23:48:30.920Z,1.07
2023-01-27T23:51:20.364Z,1.00
2023-01-27T23:54:09.655Z,0.96
2023-01-27T23:56:58.591Z,0.99
2023-01-27T23:59:47.137Z,0.99
